Time,TemperatureF,DewpointF,PressureIn,WindDirection,WindDirectionDegrees,WindSpeedMPH,WindSpeedGustMPH,Humidity,HourlyPrecipIn,Conditions,Clouds,dailyrainin,SoftwareType,DateUTC
2014-08-20 00:03:00,64.8,56.0,29.81,NW,315,0.0,0.0,73,0.00,,---,0.00,VWS V14.01,2014-08-20 07:03:00,
2014-08-20 00:13:00,64.7,56.2,29.81,NW,315,0.0,0.0,74,0.00,,---,0.00,VWS V14.01,2014-08-20 07:13:00,
2014-08-20 00:23:00,64.3,55.8,29.81,NW,315,0.0,0.0,74,0.00,,---,0.00,VWS V14.01,2014-08-20 07:23:00,
2014-08-20 00:33:00,64.2,55.8,29.81,NW,315,0.0,0.0,74,0.00,,---,0.00,VWS V14.01,2014-08-20 07:33:00,
2014-08-20 00:43:00,63.9,55.5,29.81,NW,316,0.0,0.0,74,0.00,,---,0.00,VWS V14.01,2014-08-20 07:43:00,
2014-08-20 00:53:00,63.7,55.3,29.81,NW,316,0.0,0.0,74,0.00,,---,0.00,VWS V14.01,2014-08-20 07:53:00,
2014-08-20 01:03:00,63.7,55.6,29.82,NW,316,0.0,0.0,75,0.00,,---,0.00,VWS V14.01,2014-08-20 08:03:00,
2014-08-20 01:13:00,63.5,55.4,29.82,NW,316,0.0,0.0,75,0.00,,---,0.00,VWS V14.01,2014-08-20 08:13:00,
2014-08-20 01:23:00,63.4,55.3,29.82,NW,316,0.0,0.0,75,0.00,,---,0.00,VWS V14.01,2014-08-20 08:23:00,
2014-08-20 01:33:00,63.2,55.5,29.83,NW,316,0.0,0.0,76,0.00,,---,0.00,VWS V14.01,2014-08-20 08:33:00,
2014-08-20 01:43:00,63.1,55.4,29.83,NW,316,0.0,0.0,76,0.00,,---,0.00,VWS V14.01,2014-08-20 08:43:00,
2014-08-20 01:53:00,62.9,55.6,29.83,NW,316,0.0,0.0,77,0.00,,---,0.00,VWS V14.01,2014-08-20 08:53:00,
2014-08-20 02:03:00,62.4,55.5,29.83,NW,316,0.0,0.0,78,0.00,,---,0.00,VWS V14.01,2014-08-20 09:03:00,
2014-08-20 02:13:00,62.0,55.4,29.83,NW,316,0.0,0.0,79,0.00,,---,0.00,VWS V14.01,2014-08-20 09:13:00,
2014-08-20 02:23:00,61.6,55.0,29.83,NW,316,0.0,0.0,79,0.00,,---,0.00,VWS V14.01,2014-08-20 09:23:00,
2014-08-20 02:33:00,61.6,55.0,29.83,NW,316,0.0,0.0,79,0.00,,---,0.00,VWS V14.01,2014-08-20 09:33:00,
2014-08-20 02:43:00,61.8,55.2,29.83,NW,316,0.0,0.0,79,0.00,,---,0.00,VWS V14.01,2014-08-20 09:43:00,
2014-08-20 02:53:00,62.0,55.4,29.83,NW,315,0.0,0.0,79,0.00,,---,0.00,VWS V14.01,2014-08-20 09:53:00,
2014-08-20 03:03:00,62.0,55.4,29.83,NW,315,0.0,0.0,79,0.00,,---,0.00,VWS V14.01,2014-08-20 10:03:00,
2014-08-20 03:13:00,62.0,55.8,29.83,NW,315,0.0,0.0,80,0.00,,---,0.00,VWS V14.01,2014-08-20 10:13:00,
2014-08-20 03:23:00,62.1,55.5,29.83,NW,316,0.0,0.0,79,0.00,,---,0.00,VWS V14.01,2014-08-20 10:23:00,
2014-08-20 03:33:00,62.1,55.5,29.83,NW,315,0.0,0.0,79,0.00,,---,0.00,VWS V14.01,2014-08-20 10:33:00,
2014-08-20 03:43:00,62.3,55.7,29.83,NW,315,0.0,0.0,79,0.00,,---,0.00,VWS V14.01,2014-08-20 10:43:00,
2014-08-20 03:53:00,62.3,55.7,29.83,NW,315,0.0,0.0,79,0.00,,---,0.00,VWS V14.01,2014-08-20 10:53:00,
2014-08-20 04:03:00,62.6,56.0,29.83,NW,315,0.0,0.0,79,0.00,,---,0.00,VWS V14.01,2014-08-20 11:03:00,